Beauraing, Belgium
Current Conditions -  °F | °C
As of 7:55 AM on Friday 28 Nov 2014 (Local Time) from EBFS Reporting Station
Broken Clouds Broken Clouds  
Wind Chill: 41°   Ceiling: 8000
Heat Index: 46°   Visibility: 6mi
Dew Point: 43°   Wind: 12mph
Humidity: 87%   Direction: 130°SE
Pressure: 29.65"   Gusts: NA
Location:  50.11°N, 4.96°E
Report Text: EBFS 280655Z 13010KT 9999 FEW060 BKN080 08/06 Q1004 BLU
Loading
Personal Weather Stations






























Interactive Weather Map New forecast layout! Learn more

10-Day Weather Forecast

Advertisements
Track Severe Weather on mobile